Time,TemperatureF,DewpointF,PressureIn,WindDirection,WindDirectionDegrees,WindSpeedMPH,WindSpeedGustMPH,Humidity,HourlyPrecipIn,Conditions,Clouds,dailyrainin,SolarRadiationWatts/m^2,SoftwareType,DateUTC
2013-01-13 00:01:00,35.3,33.7,30.04,WSW,254,0.0,3.0,94,0.00,,,0.05,0,Wunderground v.1.15,2013-01-13 05:01:00,
2013-01-13 00:11:00,35.2,33.6,30.03,WSW,254,1.0,1.0,94,0.00,,,0.05,0,Wunderground v.1.15,2013-01-13 05:11:00,
2013-01-13 00:16:00,35.0,33.4,30.03,WSW,254,0.0,3.0,94,0.00,,,0.05,0,Wunderground v.1.15,2013-01-13 05:16:00,
2013-01-13 00:26:00,34.9,33.3,30.04,WSW,254,1.0,3.0,94,0.00,,,0.05,0,Wunderground v.1.15,2013-01-13 05:26:00,
2013-01-13 00:36:00,34.6,33.1,30.04,WSW,254,0.0,3.0,94,0.00,,,0.05,0,Wunderground v.1.15,2013-01-13 05:36:00,
2013-01-13 00:41:00,34.6,33.1,30.04,WSW,254,0.0,3.0,94,0.00,,,0.05,0,Wunderground v.1.15,2013-01-13 05:41:00,
2013-01-13 00:51:00,34.7,33.2,30.04,WSW,254,1.0,1.0,94,0.00,,,0.05,0,Wunderground v.1.15,2013-01-13 05:51:00,
2013-01-13 01:01:00,35.2,33.6,30.05,WSW,254,0.0,3.0,94,0.00,,,0.05,0,Wunderground v.1.15,2013-01-13 06:01:00,
2013-01-13 01:11:00,35.6,34.3,30.05,WSW,254,0.0,3.0,95,0.00,,,0.05,0,Wunderground v.1.15,2013-01-13 06:11:00,
2013-01-13 01:21:00,36.0,34.7,30.05,WSW,254,0.0,3.0,95,0.00,,,0.05,0,Wunderground v.1.15,2013-01-13 06:21:00,
2013-01-13 01:31:00,36.3,35.0,30.06,WSW,254,0.0,2.0,95,0.00,,,0.00,0,Wunderground v.1.15,2013-01-13 06:31:00,
2013-01-13 01:41:00,36.3,35.0,30.06,WSW,254,0.0,2.0,95,0.00,,,0.00,0,Wunderground v.1.15,2013-01-13 06:41:00,
2013-01-13 01:51:00,36.5,35.2,30.06,WSW,254,0.0,2.0,95,0.00,,,0.00,0,Wunderground v.1.15,2013-01-13 06:51:00,
2013-01-13 02:01:00,36.3,35.0,30.07,WSW,254,0.0,2.0,95,0.00,,,0.00,0,Wunderground v.1.15,2013-01-13 07:01:00,
2013-01-13 02:06:00,36.0,34.4,30.07,WSW,254,0.0,2.0,94,0.00,,,0.00,0,Wunderground v.1.15,2013-01-13 07:06:00,
2013-01-13 02:16:00,36.2,34.9,30.07,WSW,254,0.0,2.0,95,0.00,,,0.00,0,Wunderground v.1.15,2013-01-13 07:16:00,
2013-01-13 02:26:00,36.0,34.4,30.08,WSW,254,0.0,2.0,94,0.00,,,0.00,0,Wunderground v.1.15,2013-01-13 07:26:00,
2013-01-13 02:31:00,36.2,34.9,30.08,WSW,254,0.0,2.0,95,0.00,,,0.00,0,Wunderground v.1.15,2013-01-13 07:31:00,
2013-01-13 02:41:00,36.0,34.7,30.07,WSW,254,1.0,1.0,95,0.00,,,0.00,0,Wunderground v.1.15,2013-01-13 07:41:00,
2013-01-13 02:51:00,36.0,34.7,30.07,WSW,255,1.0,1.0,95,0.00,,,0.00,0,Wunderground v.1.15,2013-01-13 07:51:00,
2013-01-13 03:01:00,35.9,34.3,30.06,WSW,254,1.0,1.0,94,0.00,,,0.00,0,Wunderground v.1.15,2013-01-13 08:01:00,
2013-01-13 03:06:00,35.8,34.2,30.06,WSW,254,1.0,3.0,94,0.00,,,0.00,0,Wunderground v.1.15,2013-01-13 08:06:00,
2013-01-13 03:16:00,35.5,33.9,30.05,WSW,255,1.0,3.0,94,0.00,,,0.00,0,Wunderground v.1.15,2013-01-13 08:16:00,
2013-01-13 03:26:00,35.5,34.2,30.04,WSW,254,0.0,3.0,95,0.00,,,0.00,0,Wunderground v.1.15,2013-01-13 08:26:00,
2013-01-13 03:36:00,35.5,34.2,30.04,WSW,254,0.0,3.0,95,0.00,,,0.00,0,Wunderground v.1.15,2013-01-13 08:36:00,
2013-01-13 03:46:00,35.3,34.0,30.03,WSW,254,0.0,3.0,95,0.00,,,0.00,0,Wunderground v.1.15,2013-01-13 08:46:00,
2013-01-13 03:56:00,35.0,33.4,30.05,WSW,255,0.0,4.0,94,0.00,,,0.00,0,Wunderground v.1.15,2013-01-13 08:56:00,
2013-01-13 04:11:00,35.3,34.0,30.04,WSW,255,0.0,4.0,95,0.00,,,0.00,0,Wunderground v.1.15,2013-01-13 09:11:00,
2013-01-13 04:21:00,36.2,34.9,30.04,WSW,255,0.0,4.0,95,0.00,,,0.00,0,Wunderground v.1.15,2013-01-13 09:21:00,
2013-01-13 04:31:00,36.0,34.7,30.03,WSW,255,0.0,4.0,95,0.00,,,0.00,0,Wunderground v.1.15,2013-01-13 09:31:00,
2013-01-13 04:41:00,36.2,34.9,30.03,WSW,255,0.0,4.0,95,0.00,,,0.00,0,Wunderground v.1.15,2013-01-13 09:41:00,
2013-01-13 04:51:00,36.6,35.3,30.03,WSW,254,0.0,4.0,95,0.00,,,0.00,0,Wunderground v.1.15,2013-01-13 09:51:00,
2013-01-13 05:01:00,36.9,35.6,30.04,WSW,255,0.0,3.0,95,0.00,,,0.00,0,Wunderground v.1.15,2013-01-13 10:01:00,
2013-01-13 05:06:00,36.8,35.5,30.04,WSW,255,0.0,3.0,95,0.00,,,0.00,0,Wunderground v.1.15,2013-01-13 10:06:00,
2013-01-13 05:16:00,36.9,35.6,30.02,WSW,255,0.0,3.0,95,0.00,,,0.00,0,Wunderground v.1.15,2013-01-13 10:16:00,
2013-01-13 05:21:00,36.8,35.5,30.02,WSW,255,0.0,3.0,95,0.00,,,0.00,0,Wunderground v.1.15,2013-01-13 10:21:00,
2013-01-13 05:31:00,36.8,35.5,30.01,WSW,254,0.0,3.0,95,0.00,,,0.00,0,Wunderground v.1.15,2013-01-13 10:31:00,
2013-01-13 05:41:00,36.6,35.3,30.00,WSW,255,0.0,3.0,95,0.00,,,0.00,0,Wunderground v.1.15,2013-01-13 10:41:00,
2013-01-13 05:51:00,36.8,35.5,30.00,WSW,255,0.0,3.0,95,0.00,,,0.00,0,Wunderground v.1.15,2013-01-13 10:51:00,
2013-01-13 06:01:00,36.3,35.0,29.99,WSW,255,0.0,3.0,95,0.00,,,0.00,0,Wunderground v.1.15,2013-01-13 11:01:00,
2013-01-13 06:06:00,36.3,35.0,29.99,WSW,254,0.0,3.0,95,0.00,,,0.00,0,Wunderground v.1.15,2013-01-13 11:06:00,
2013-01-13 06:16:00,36.3,35.0,29.99,WSW,254,0.0,3.0,95,0.00,,,0.00,0,Wunderground v.1.15,2013-01-13 11:16:00,
2013-01-13 06:26:00,35.9,34.6,30.00,WSW,255,0.0,3.0,95,0.00,,,0.00,0,Wunderground v.1.15,2013-01-13 11:26:00,
2013-01-13 06:31:00,35.6,34.0,30.00,WSW,254,0.0,3.0,94,0.00,,,0.00,0,Wunderground v.1.15,2013-01-13 11:31:00,
2013-01-13 06:41:00,35.5,34.2,30.01,WSW,255,0.0,3.0,95,0.00,,,0.00,0,Wunderground v.1.15,2013-01-13 11:41:00,
2013-01-13 06:51:00,35.3,34.0,30.01,WSW,255,0.0,3.0,95,0.00,,,0.00,0,Wunderground v.1.15,2013-01-13 11:51:00,
2013-01-13 06:56:00,35.6,34.3,30.01,WSW,255,0.0,3.0,95,0.00,,,0.00,0,Wunderground v.1.15,2013-01-13 11:56:00,
2013-01-13 07:06:00,36.0,34.7,30.01,WSW,255,0.0,0.0,95,0.00,,,0.00,0,Wunderground v.1.15,2013-01-13 12:06:00,
2013-01-13 07:16:00,36.2,34.9,30.01,WSW,255,0.0,0.0,95,0.00,,,0.00,0,Wunderground v.1.15,2013-01-13 12:16:00,
2013-01-13 07:26:00,36.6,35.3,30.01,WSW,255,0.0,0.0,95,0.00,,,0.00,0,Wunderground v.1.15,2013-01-13 12:26:00,
2013-01-13 07:36:00,36.3,35.0,30.01,WSW,255,0.0,1.0,95,0.00,,,0.00,0,Wunderground v.1.15,2013-01-13 12:36:00,
2013-01-13 07:46:00,36.9,35.6,30.01,WSW,255,0.0,1.0,95,0.00,,,0.00,11,Wunderground v.1.15,2013-01-13 12:46:00,
2013-01-13 07:56:00,36.9,35.6,30.01,WSW,255,0.0,1.0,95,0.00,,,0.00,21,Wunderground v.1.15,2013-01-13 12:56:00,
2013-01-13 08:11:00,36.8,35.5,30.01,WSW,255,0.0,2.0,95,0.00,,,0.00,7,Wunderground v.1.15,2013-01-13 13:11:00,
2013-01-13 08:21:00,36.5,35.2,30.01,WSW,254,1.0,1.0,95,0.00,,,0.00,12,Wunderground v.1.15,2013-01-13 13:21:00,
2013-01-13 08:31:00,36.5,35.2,30.00,South,173,0.0,3.0,95,0.00,,,0.00,47,Wunderground v.1.15,2013-01-13 13:31:00,
2013-01-13 08:41:00,36.8,35.5,30.00,South,173,0.0,3.0,95,0.00,,,0.00,47,Wunderground v.1.15,2013-01-13 13:41:00,
2013-01-13 08:51:00,36.8,35.5,30.00,South,173,0.0,3.0,95,0.00,,,0.00,83,Wunderground v.1.15,2013-01-13 13:51:00,
2013-01-13 09:01:00,37.9,36.6,29.99,ESE,118,0.0,0.0,95,0.00,,,0.00,107,Wunderground v.1.15,2013-01-13 14:01:00,
2013-01-13 09:06:00,38.5,37.5,29.99,ESE,118,0.0,0.0,96,0.00,,,0.00,72,Wunderground v.1.15,2013-01-13 14:06:00,
2013-01-13 09:16:00,38.9,37.9,29.99,ESE,118,0.0,0.0,96,0.00,,,0.00,79,Wunderground v.1.15,2013-01-13 14:16:00,
2013-01-13 09:26:00,39.3,38.0,29.99,ESE,118,0.0,0.0,95,0.00,,,0.00,69,Wunderground v.1.15,2013-01-13 14:26:00,
2013-01-13 09:36:00,39.3,38.0,29.99,ESE,118,0.0,6.0,95,0.00,,,0.00,56,Wunderground v.1.15,2013-01-13 14:36:00,
2013-01-13 09:41:00,39.3,38.0,30.00,ESE,118,0.0,6.0,95,0.00,,,0.00,60,Wunderground v.1.15,2013-01-13 14:41:00,
2013-01-13 09:51:00,39.3,38.0,30.00,ESE,107,0.0,6.0,95,0.00,,,0.00,243,Wunderground v.1.15,2013-01-13 14:51:00,
2013-01-13 10:01:00,39.9,38.6,29.98,ESE,105,0.0,4.0,95,0.00,,,0.00,141,Wunderground v.1.15,2013-01-13 15:01:00,
2013-01-13 10:11:00,40.3,39.0,29.99,ESE,105,0.0,4.0,95,0.00,,,0.00,118,Wunderground v.1.15,2013-01-13 15:11:00,
2013-01-13 10:21:00,40.6,39.3,29.99,East,98,0.0,4.0,95,0.00,,,0.00,107,Wunderground v.1.15,2013-01-13 15:21:00,
2013-01-13 10:26:00,40.8,39.5,30.00,SE,139,1.0,4.0,95,0.00,,,0.00,84,Wunderground v.1.15,2013-01-13 15:26:00,
2013-01-13 10:36:00,40.9,39.6,30.00,East,82,1.0,5.0,95,0.00,,,0.00,69,Wunderground v.1.15,2013-01-13 15:36:00,
2013-01-13 10:46:00,40.8,39.5,30.00,East,82,0.0,5.0,95,0.00,,,0.00,178,Wunderground v.1.15,2013-01-13 15:46:00,
2013-01-13 10:56:00,40.8,39.5,29.95,ESE,120,0.0,5.0,95,0.00,,,0.00,158,Wunderground v.1.15,2013-01-13 15:56:00,
2013-01-13 11:11:00,40.6,39.3,29.96,ESE,120,1.0,1.0,95,0.00,,,0.00,67,Wunderground v.1.15,2013-01-13 16:11:00,
2013-01-13 11:21:00,40.5,38.9,29.96,ESE,117,1.0,1.0,94,0.00,,,0.00,72,Wunderground v.1.15,2013-01-13 16:21:00,
2013-01-13 11:26:00,40.5,38.9,29.96,ESE,116,0.0,4.0,94,0.00,,,0.00,62,Wunderground v.1.15,2013-01-13 16:26:00,
2013-01-13 11:36:00,40.5,38.9,29.96,SSE,167,0.0,3.0,94,0.00,,,0.00,81,Wunderground v.1.15,2013-01-13 16:36:00,
2013-01-13 11:46:00,40.5,38.9,29.95,East,96,0.0,4.0,94,0.00,,,0.00,72,Wunderground v.1.15,2013-01-13 16:46:00,
2013-01-13 11:51:00,40.5,38.9,29.95,ENE,78,1.0,1.0,94,0.00,,,0.00,76,Wunderground v.1.15,2013-01-13 16:51:00,
2013-01-13 12:01:00,40.5,38.9,29.94,ENE,78,0.0,4.0,94,0.00,,,0.00,53,Wunderground v.1.15,2013-01-13 17:01:00,
2013-01-13 12:06:00,40.3,38.7,29.94,ESE,108,0.0,4.0,94,0.00,,,0.00,40,Wunderground v.1.15,2013-01-13 17:06:00,
2013-01-13 12:16:00,40.3,38.7,29.94,East,91,1.0,2.0,94,0.00,,,0.00,26,Wunderground v.1.15,2013-01-13 17:16:00,
2013-01-13 12:21:00,40.2,38.3,29.94,East,86,1.0,1.0,93,0.00,,,0.00,47,Wunderground v.1.15,2013-01-13 17:21:00,
2013-01-13 12:31:00,39.9,38.3,29.93,NNE,21,1.0,6.0,94,0.00,,,0.00,69,Wunderground v.1.15,2013-01-13 17:31:00,
2013-01-13 12:41:00,39.6,38.0,29.93,NNE,25,0.0,6.0,94,0.00,,,0.00,113,Wunderground v.1.15,2013-01-13 17:41:00,
2013-01-13 12:51:00,40.1,38.5,29.93,NNE,17,0.0,6.0,94,0.00,,,0.00,171,Wunderground v.1.15,2013-01-13 17:51:00,
2013-01-13 13:01:00,40.8,39.2,29.90,NNW,346,0.0,4.0,94,0.00,,,0.00,192,Wunderground v.1.15,2013-01-13 18:01:00,
2013-01-13 13:11:00,41.6,40.0,29.90,NW,315,1.0,4.0,94,0.00,,,0.00,162,Wunderground v.1.15,2013-01-13 18:11:00,
2013-01-13 13:21:00,42.2,40.3,29.90,WNW,295,1.0,1.0,93,0.00,,,0.00,144,Wunderground v.1.15,2013-01-13 18:21:00,
2013-01-13 13:26:00,42.3,40.1,29.88,ENE,75,0.0,4.0,92,0.00,,,0.00,156,Wunderground v.1.15,2013-01-13 18:26:00,
2013-01-13 13:36:00,42.8,40.4,29.88,ESE,110,0.0,5.0,91,0.00,,,0.00,248,Wunderground v.1.15,2013-01-13 18:36:00,
2013-01-13 13:46:00,43.3,40.3,29.87,North,6,1.0,5.0,89,0.00,,,0.00,151,Wunderground v.1.15,2013-01-13 18:46:00,
2013-01-13 13:51:00,43.3,40.3,29.87,NE,37,0.0,5.0,89,0.00,,,0.00,65,Wunderground v.1.15,2013-01-13 18:51:00,
2013-01-13 14:01:00,43.3,39.7,29.90,ENE,70,0.0,7.0,87,0.00,,,0.00,98,Wunderground v.1.15,2013-01-13 19:01:00,
2013-01-13 14:06:00,43.1,39.5,29.90,ENE,70,0.0,7.0,87,0.00,,,0.00,79,Wunderground v.1.15,2013-01-13 19:06:00,
2013-01-13 14:16:00,42.8,38.9,29.88,SSE,164,0.0,7.0,86,0.00,,,0.00,72,Wunderground v.1.15,2013-01-13 19:16:00,
2013-01-13 14:21:00,42.8,38.9,29.88,SSE,164,0.0,7.0,86,0.00,,,0.00,98,Wunderground v.1.15,2013-01-13 19:21:00,
2013-01-13 14:31:00,42.8,38.9,29.88,South,184,0.0,4.0,86,0.00,,,0.00,98,Wunderground v.1.15,2013-01-13 19:31:00,
2013-01-13 14:41:00,42.9,39.3,29.87,East,95,0.0,4.0,87,0.00,,,0.00,65,Wunderground v.1.15,2013-01-13 19:41:00,
2013-01-13 14:51:00,42.9,39.0,29.87,East,95,0.0,4.0,86,0.00,,,0.00,53,Wunderground v.1.15,2013-01-13 19:51:00,
2013-01-13 15:01:00,42.5,38.6,29.88,South,179,0.0,4.0,86,0.00,,,0.00,35,Wunderground v.1.15,2013-01-13 20:01:00,
2013-01-13 15:11:00,42.8,39.5,29.90,NE,36,1.0,1.0,88,0.00,,,0.00,23,Wunderground v.1.15,2013-01-13 20:11:00,
2013-01-13 15:21:00,42.6,39.3,29.90,SW,221,1.0,1.0,88,0.00,,,0.00,46,Wunderground v.1.15,2013-01-13 20:21:00,
2013-01-13 15:31:00,42.3,39.3,29.89,East,89,0.0,5.0,89,0.00,,,0.00,21,Wunderground v.1.15,2013-01-13 20:31:00,
2013-01-13 15:41:00,42.2,39.2,29.89,East,87,0.0,5.0,89,0.00,,,0.00,12,Wunderground v.1.15,2013-01-13 20:41:00,
2013-01-13 15:46:00,42.3,39.6,29.89,North,4,0.0,5.0,90,0.00,,,0.00,12,Wunderground v.1.15,2013-01-13 20:46:00,
2013-01-13 15:56:00,42.5,39.8,29.89,SSE,155,0.0,5.0,90,0.00,,,0.00,9,Wunderground v.1.15,2013-01-13 20:56:00,
2013-01-13 16:01:00,42.3,39.6,29.89,SSE,155,0.0,5.0,90,0.00,,,0.00,7,Wunderground v.1.15,2013-01-13 21:01:00,
2013-01-13 16:11:00,43.1,40.7,29.89,ENE,70,1.0,5.0,91,0.00,,,0.00,0,Wunderground v.1.15,2013-01-13 21:11:00,
2013-01-13 16:21:00,43.3,40.8,29.89,East,79,1.0,1.0,91,0.00,,,0.00,0,Wunderground v.1.15,2013-01-13 21:21:00,
2013-01-13 16:26:00,43.2,40.8,29.90,East,79,0.0,5.0,91,0.00,,,0.00,0,Wunderground v.1.15,2013-01-13 21:26:00,
2013-01-13 16:36:00,43.2,41.0,29.90,East,79,0.0,5.0,92,0.00,,,0.00,0,Wunderground v.1.15,2013-01-13 21:36:00,
2013-01-13 16:46:00,43.5,41.3,29.88,East,88,1.0,5.0,92,0.00,,,0.00,0,Wunderground v.1.15,2013-01-13 21:46:00,
2013-01-13 16:51:00,43.8,41.6,29.88,ENE,61,1.0,1.0,92,0.00,,,0.00,0,Wunderground v.1.15,2013-01-13 21:51:00,
2013-01-13 17:01:00,44.3,42.4,29.88,NNE,27,1.0,13.0,93,0.00,,,0.00,0,Wunderground v.1.15,2013-01-13 22:01:00,
2013-01-13 17:06:00,44.6,42.4,29.88,NE,37,1.0,13.0,92,0.00,,,0.00,0,Wunderground v.1.15,2013-01-13 22:06:00,
2013-01-13 17:16:00,44.8,42.6,29.90,East,93,1.0,13.0,92,0.00,,,0.00,0,Wunderground v.1.15,2013-01-13 22:16:00,
2013-01-13 17:21:00,44.8,42.6,29.90,East,93,0.0,13.0,92,0.00,,,0.00,0,Wunderground v.1.15,2013-01-13 22:21:00,
2013-01-13 17:31:00,44.6,42.4,29.90,ESE,119,0.0,5.0,92,0.00,,,0.00,0,Wunderground v.1.15,2013-01-13 22:31:00,
2013-01-13 17:41:00,44.8,42.6,29.90,East,94,1.0,1.0,92,0.00,,,0.00,0,Wunderground v.1.15,2013-01-13 22:41:00,
2013-01-13 17:51:00,44.8,42.6,29.90,ENE,72,1.0,1.0,92,0.00,,,0.00,0,Wunderground v.1.15,2013-01-13 22:51:00,
2013-01-13 18:01:00,44.8,42.6,29.90,East,95,0.0,4.0,92,0.00,,,0.00,0,Wunderground v.1.15,2013-01-13 23:01:00,
2013-01-13 18:11:00,44.8,42.6,29.90,East,85,1.0,1.0,92,0.00,,,0.00,0,Wunderground v.1.15,2013-01-13 23:11:00,
2013-01-13 18:21:00,44.8,42.6,29.90,East,84,1.0,4.0,92,0.00,,,0.00,0,Wunderground v.1.15,2013-01-13 23:21:00,
2013-01-13 18:26:00,44.8,42.6,29.90,ENE,69,1.0,4.0,92,0.00,,,0.00,0,Wunderground v.1.15,2013-01-13 23:26:00,
2013-01-13 18:36:00,44.8,42.6,29.90,ENE,69,0.0,6.0,92,0.00,,,0.00,0,Wunderground v.1.15,2013-01-13 23:36:00,
2013-01-13 18:46:00,44.5,42.3,29.90,SSE,157,0.0,6.0,92,0.00,,,0.00,0,Wunderground v.1.15,2013-01-13 23:46:00,
2013-01-13 18:51:00,44.5,42.3,29.90,SSE,166,0.0,6.0,92,0.00,,,0.00,0,Wunderground v.1.15,2013-01-13 23:51:00,
2013-01-13 19:01:00,44.6,42.4,29.91,ENE,70,1.0,4.0,92,0.00,,,0.00,0,Wunderground v.1.15,2013-01-14 00:01:00,
2013-01-13 19:06:00,44.9,42.7,29.91,ENE,63,1.0,4.0,92,0.00,,,0.00,0,Wunderground v.1.15,2013-01-14 00:06:00,
2013-01-13 19:16:00,44.6,42.4,29.90,NE,56,0.0,4.0,92,0.00,,,0.00,0,Wunderground v.1.15,2013-01-14 00:16:00,
2013-01-13 19:21:00,44.5,42.3,29.90,NE,56,0.0,4.0,92,0.00,,,0.00,0,Wunderground v.1.15,2013-01-14 00:21:00,
2013-01-13 19:31:00,44.6,42.4,29.90,East,100,1.0,1.0,92,0.00,,,0.00,0,Wunderground v.1.15,2013-01-14 00:31:00,
2013-01-13 19:41:00,44.5,42.3,29.89,ESE,114,0.0,6.0,92,0.00,,,0.00,0,Wunderground v.1.15,2013-01-14 00:41:00,
2013-01-13 19:51:00,44.5,42.3,29.89,East,86,0.0,6.0,92,0.00,,,0.00,0,Wunderground v.1.15,2013-01-14 00:51:00,
2013-01-13 20:01:00,44.6,42.4,29.89,South,175,0.0,4.0,92,0.00,,,0.00,0,Wunderground v.1.15,2013-01-14 01:01:00,
2013-01-13 20:11:00,44.5,42.3,29.89,North,11,1.0,4.0,92,0.00,,,0.00,0,Wunderground v.1.15,2013-01-14 01:11:00,
2013-01-13 20:21:00,44.6,42.4,29.89,NNE,23,0.0,4.0,92,0.00,,,0.00,0,Wunderground v.1.15,2013-01-14 01:21:00,
2013-01-13 20:31:00,44.3,42.1,29.89,NNE,20,0.0,5.0,92,0.00,,,0.00,0,Wunderground v.1.15,2013-01-14 01:31:00,
2013-01-13 20:41:00,44.3,42.1,29.87,East,91,0.0,5.0,92,0.00,,,0.00,0,Wunderground v.1.15,2013-01-14 01:41:00,
2013-01-13 20:51:00,44.2,42.0,29.87,East,86,0.0,5.0,92,0.00,,,0.00,0,Wunderground v.1.15,2013-01-14 01:51:00,
2013-01-13 21:01:00,44.1,41.9,29.87,East,86,0.0,4.0,92,0.00,,,0.00,0,Wunderground v.1.15,2013-01-14 02:01:00,
2013-01-13 21:06:00,43.9,41.7,29.87,ESE,116,0.0,4.0,92,0.00,,,0.00,0,Wunderground v.1.15,2013-01-14 02:06:00,
2013-01-13 21:16:00,44.1,41.9,29.87,ESE,117,0.0,4.0,92,0.00,,,0.00,0,Wunderground v.1.15,2013-01-14 02:16:00,
2013-01-13 21:21:00,44.1,41.9,29.87,ESE,118,0.0,4.0,92,0.00,,,0.00,0,Wunderground v.1.15,2013-01-14 02:21:00,
2013-01-13 21:31:00,43.9,41.7,29.86,ESE,118,1.0,1.0,92,0.00,,,0.00,0,Wunderground v.1.15,2013-01-14 02:31:00,
2013-01-13 21:41:00,43.9,41.7,29.87,ESE,118,0.0,2.0,92,0.00,,,0.00,0,Wunderground v.1.15,2013-01-14 02:41:00,
2013-01-13 21:46:00,43.8,41.6,29.87,ESE,118,0.0,2.0,92,0.00,,,0.00,0,Wunderground v.1.15,2013-01-14 02:46:00,
2013-01-13 21:56:00,43.3,41.1,29.88,ESE,118,0.0,2.0,92,0.00,,,0.00,0,Wunderground v.1.15,2013-01-14 02:56:00,
2013-01-13 22:11:00,43.9,42.0,29.88,ENE,75,0.0,3.0,93,0.00,,,0.00,0,Wunderground v.1.15,2013-01-14 03:11:00,
2013-01-13 22:21:00,43.9,42.0,29.88,SE,142,0.0,3.0,93,0.00,,,0.00,0,Wunderground v.1.15,2013-01-14 03:21:00,
2013-01-13 22:31:00,43.8,41.9,29.88,SSW,210,0.0,5.0,93,0.00,,,0.00,0,Wunderground v.1.15,2013-01-14 03:31:00,
2013-01-13 22:41:00,43.9,42.0,29.88,South,186,0.0,5.0,93,0.00,,,0.00,0,Wunderground v.1.15,2013-01-14 03:41:00,
2013-01-13 22:51:00,44.1,42.2,29.88,South,186,0.0,5.0,93,0.00,,,0.00,0,Wunderground v.1.15,2013-01-14 03:51:00,
2013-01-13 23:01:00,43.6,41.7,29.88,South,186,0.0,5.0,93,0.00,,,0.00,0,Wunderground v.1.15,2013-01-14 04:01:00,
2013-01-13 23:06:00,43.6,41.7,29.88,South,186,0.0,5.0,93,0.00,,,0.00,0,Wunderground v.1.15,2013-01-14 04:06:00,
2013-01-13 23:16:00,43.1,40.9,29.88,South,186,0.0,5.0,92,0.00,,,0.00,0,Wunderground v.1.15,2013-01-14 04:16:00,
2013-01-13 23:26:00,43.3,41.4,29.88,South,186,0.0,5.0,93,0.00,,,0.00,0,Wunderground v.1.15,2013-01-14 04:26:00,
2013-01-13 23:36:00,43.3,41.4,29.88,South,189,0.0,3.0,93,0.00,,,0.00,0,Wunderground v.1.15,2013-01-14 04:36:00,
2013-01-13 23:46:00,43.5,41.6,29.88,South,189,0.0,3.0,93,0.00,,,0.00,0,Wunderground v.1.15,2013-01-14 04:46:00,
2013-01-13 23:56:00,43.2,41.3,29.88,South,189,0.0,3.0,93,0.00,,,0.00,0,Wunderground v.1.15,2013-01-14 04:56:00,